Time;durP1;ratioP1;P1;durP2;ratioP2;P2;SDS_P1;SDS_P2;PMS_P1;PMS_P2;Temp;Humidity;BMP_temperature;BMP_pressure;BME280_temperature;BME280_humidity;BME280_pressure;Samples;Min_cycle;Max_cycle;Signal;HPM_P1;HPM_P2
2023/01/02 20:28:11;;;;;;;56.33;30.05;;;;;;;;;;6018770;23;20446;-92
2023/01/02 20:30:37;;;;;;;55.67;30.52;;;;;;;;;;6017268;23;20019;-95
2023/01/02 20:33:05;;;;;;;52.55;29.02;;;;;;;;;;6017095;23;20011;-92
2023/01/02 20:35:30;;;;;;;57.20;29.58;;;;;;;;;;6016846;23;20419;-91
2023/01/02 20:37:56;;;;;;;55.45;30.10;;;;;;;;;;6016777;23;20083;-91
2023/01/02 20:40:22;;;;;;;55.35;29.38;;;;;;;;;;6016998;23;20018;-91
2023/01/02 20:42:47;;;;;;;56.83;29.45;;;;;;;;;;6016651;23;20006;-91
2023/01/02 20:45:13;;;;;;;51.88;29.75;;;;;;;;;;6039823;23;20093;-92
2023/01/02 20:47:39;;;;;;;54.72;28.85;;;;;;;;;;6040578;23;20003;-91
2023/01/02 20:50:05;;;;;;;55.45;28.83;;;;;;;;;;6015926;23;20018;-91
2023/01/02 20:52:31;;;;;;;52.33;28.60;;;;;;;;;;6039806;23;20008;-91
2023/01/02 20:54:57;;;;;;;54.72;28.60;;;;;;;;;;6039818;23;20098;-92
2023/01/02 20:57:23;;;;;;;58.17;30.33;;;;;;;;;;6039694;23;20011;-91
2023/01/02 20:59:51;;;;;;;54.78;31.55;;;;;;;;;;6039874;23;20014;-91
2023/01/02 21:02:17;;;;;;;60.15;29.92;;;;;;;;;;6039446;23;20015;-91
2023/01/02 21:04:44;;;;;;;61.88;34.72;;;;;;;;;;6039951;23;20106;-91
2023/01/02 21:07:10;;;;;;;59.38;31.00;;;;;;;;;;6039771;23;20011;-92
2023/01/02 21:09:38;;;;;;;57.83;30.80;;;;;;;;;;6016062;23;20015;-91
2023/01/02 21:13:05;;;;;;;56.38;29.33;;;;;;;;;;6039669;23;20098;-92
2023/01/02 21:14:52;;;;;;;57.03;29.95;;;;;;;;;;6041214;23;20455;-92
2023/01/02 21:17:17;;;;;;;56.15;30.02;;;;;;;;;;6039532;23;20007;-91
2023/01/02 21:19:43;;;;;;;53.17;29.50;;;;;;;;;;6039748;23;20004;-92
2023/01/02 21:22:09;;;;;;;56.13;29.88;;;;;;;;;;6039637;23;20436;-92
2023/01/02 21:24:35;;;;;;;54.75;28.58;;;;;;;;;;6015767;23;20031;-92
2023/01/02 21:27:00;;;;;;;52.92;28.30;;;;;;;;;;6039647;23;20007;-91
2023/01/02 21:29:26;;;;;;;46.75;25.75;;;;;;;;;;6015327;23;20016;-91
2023/01/02 21:31:51;;;;;;;50.15;25.50;;;;;;;;;;6039557;23;20012;-91
2023/01/02 21:34:17;;;;;;;45.15;25.15;;;;;;;;;;6039700;23;20011;-91
2023/01/02 21:36:42;;;;;;;42.88;23.70;;;;;;;;;;6039871;23;20017;-91
2023/01/02 21:39:09;;;;;;;45.15;23.58;;;;;;;;;;6039634;23;20091;-91
2023/01/02 21:44:19;;;;;;;43.92;25.20;;;;;;;;;;6041171;23;20015;-92
2023/01/02 21:46:44;;;;;;;44.05;25.20;;;;;;;;;;6039237;23;20420;-92
2023/01/02 21:49:11;;;;;;;46.92;25.23;;;;;;;;;;6040760;23;20360;-91
2023/01/02 21:51:36;;;;;;;46.50;25.20;;;;;;;;;;6015991;23;20011;-91
2023/01/02 21:54:02;;;;;;;45.75;24.77;;;;;;;;;;6039495;23;20392;-92
2023/01/02 21:56:28;;;;;;;45.10;25.95;;;;;;;;;;6039656;23;20014;-91
2023/01/02 21:58:54;;;;;;;48.33;25.88;;;;;;;;;;6039401;23;20011;-91
2023/01/02 22:01:20;;;;;;;45.58;26.02;;;;;;;;;;6038302;23;20014;-91
2023/01/02 22:03:48;;;;;;;49.55;27.95;;;;;;;;;;6039302;23;20012;-92
2023/01/02 22:06:13;;;;;;;47.60;26.55;;;;;;;;;;6015541;23;20032;-91
2023/01/02 22:08:39;;;;;;;49.38;27.73;;;;;;;;;;6038998;23;20427;-91
2023/01/02 22:13:49;;;;;;;52.15;28.88;;;;;;;;;;6040345;23;20069;-92
2023/01/02 22:16:15;;;;;;;48.35;26.95;;;;;;;;;;6038849;23;20010;-92
2023/01/02 22:18:40;;;;;;;49.55;26.95;;;;;;;;;;6039428;23;20033;-92
2023/01/02 22:21:06;;;;;;;46.58;26.60;;;;;;;;;;6039582;23;20066;-92
2023/01/02 22:23:32;;;;;;;48.15;26.08;;;;;;;;;;6040720;23;20007;-91
2023/01/02 22:25:57;;;;;;;46.95;24.55;;;;;;;;;;6038838;23;20018;-92
2023/01/02 22:28:23;;;;;;;39.85;21.45;;;;;;;;;;6038746;23;20067;-92
2023/01/02 22:30:48;;;;;;;35.00;20.60;;;;;;;;;;6038861;23;20015;-92
2023/01/02 22:33:14;;;;;;;36.15;20.35;;;;;;;;;;6040534;23;20011;-91
2023/01/02 22:35:39;;;;;;;39.00;23.50;;;;;;;;;;6040778;23;20312;-93
2023/01/02 22:38:05;;;;;;;45.00;23.80;;;;;;;;;;6040995;23;20066;-92
2023/01/02 22:40:32;;;;;;;38.72;21.83;;;;;;;;;;6017420;23;20082;-92
2023/01/02 22:42:58;;;;;;;35.15;20.67;;;;;;;;;;6040286;23;20014;-90
2023/01/02 22:45:26;;;;;;;36.60;20.70;;;;;;;;;;6040648;23;20007;-92
2023/01/02 22:47:55;;;;;;;39.22;22.17;;;;;;;;;;6040620;23;20008;-93
2023/01/02 22:50:24;;;;;;;39.13;22.85;;;;;;;;;;6040350;23;20343;-92
2023/01/02 22:52:50;;;;;;;44.50;24.27;;;;;;;;;;6040407;23;20034;-91
2023/01/02 22:55:19;;;;;;;39.00;22.27;;;;;;;;;;6040055;23;20242;-93
2023/01/02 22:57:46;;;;;;;37.53;21.58;;;;;;;;;;6040328;23;20031;-92
2023/01/02 23:00:12;;;;;;;43.65;23.55;;;;;;;;;;6040027;23;20007;-92
2023/01/02 23:02:38;;;;;;;41.47;23.95;;;;;;;;;;6040328;23;20015;-92
2023/01/02 23:05:04;;;;;;;38.50;21.58;;;;;;;;;;6039807;23;20412;-92
2023/01/02 23:07:29;;;;;;;35.45;20.75;;;;;;;;;;6040654;23;20439;-92
2023/01/02 23:09:55;;;;;;;35.20;20.45;;;;;;;;;;6040396;23;20018;-92
